createdAt,value
2024-04-03T00:00:17.047Z,19.93
2024-04-03T00:01:17.123Z,19.94
2024-04-03T00:02:19.023Z,19.95
2024-04-03T00:03:17.231Z,19.95
2024-04-03T00:04:17.258Z,19.94
2024-04-03T00:05:17.314Z,19.96
2024-04-03T00:06:17.338Z,19.95
2024-04-03T00:07:17.382Z,19.95
2024-04-03T00:08:17.423Z,19.95
2024-04-03T00:09:17.425Z,19.95
2024-04-03T00:10:17.506Z,19.94
2024-04-03T00:11:17.521Z,19.94
2024-04-03T00:12:17.633Z,19.96
2024-04-03T00:13:17.729Z,19.97
2024-04-03T00:14:17.814Z,19.97
2024-04-03T00:15:17.909Z,19.96
2024-04-03T00:16:18.006Z,19.98
2024-04-03T00:17:18.088Z,19.98
2024-04-03T00:18:18.162Z,19.98
2024-04-03T00:19:18.262Z,19.99
2024-04-03T00:20:18.354Z,20.00
2024-04-03T00:21:18.436Z,20.02
2024-04-03T00:22:18.527Z,20.01
2024-04-03T00:23:18.621Z,20.04
2024-04-03T00:24:18.713Z,20.03
2024-04-03T00:25:18.802Z,20.02
2024-04-03T00:26:18.874Z,20.04
2024-04-03T00:27:18.965Z,20.01
2024-04-03T00:28:19.016Z,20.03
2024-04-03T00:29:19.119Z,20.04
2024-04-03T00:30:19.216Z,20.02
2024-04-03T00:31:19.322Z,20.01
2024-04-03T00:32:19.394Z,20.02
2024-04-03T00:33:19.484Z,20.03
2024-04-03T00:34:19.567Z,20.01
2024-04-03T00:35:19.675Z,20.02
2024-04-03T00:36:19.751Z,20.03
2024-04-03T00:37:19.833Z,20.05
2024-04-03T00:38:19.930Z,20.04
2024-04-03T00:39:20.025Z,20.04
2024-04-03T00:40:20.115Z,20.05
2024-04-03T00:41:20.208Z,20.03
2024-04-03T00:42:20.293Z,20.04
2024-04-03T00:43:20.391Z,20.05
2024-04-03T00:44:20.493Z,20.04
2024-04-03T00:45:20.595Z,20.06
2024-04-03T00:46:20.659Z,20.05
2024-04-03T00:47:20.766Z,20.06
2024-04-03T00:48:20.866Z,20.06
2024-04-03T00:49:20.933Z,20.06
2024-04-03T00:50:21.112Z,20.06
2024-04-03T00:51:21.154Z,20.07
2024-04-03T00:52:21.245Z,20.06
2024-04-03T00:53:21.300Z,20.08
2024-04-03T00:54:21.406Z,20.07
2024-04-03T00:55:21.477Z,20.07
2024-04-03T00:56:21.567Z,20.08
2024-04-03T00:57:21.675Z,20.07
2024-04-03T00:58:21.764Z,20.07
2024-04-03T00:59:21.847Z,20.07
2024-04-03T01:00:21.935Z,20.09
2024-04-03T01:01:22.038Z,20.10
2024-04-03T01:02:22.096Z,20.08
2024-04-03T01:03:22.207Z,20.10
2024-04-03T01:04:22.296Z,20.10
2024-04-03T01:05:22.365Z,20.12
2024-04-03T01:06:22.483Z,20.12
2024-04-03T01:07:22.586Z,20.11
2024-04-03T01:08:22.669Z,20.11
2024-04-03T01:09:22.754Z,20.11
2024-04-03T01:10:22.839Z,20.11
2024-04-03T01:11:22.923Z,20.11
2024-04-03T01:12:22.996Z,20.12
2024-04-03T01:13:23.142Z,20.12
2024-04-03T01:14:23.194Z,20.11
2024-04-03T01:15:23.297Z,20.13
2024-04-03T01:16:23.362Z,20.12
2024-04-03T01:17:23.479Z,20.12
2024-04-03T01:18:23.558Z,20.12
2024-04-03T01:19:23.662Z,20.14
2024-04-03T01:20:23.767Z,20.14
2024-04-03T01:21:23.856Z,20.13
2024-04-03T01:22:23.930Z,20.12
2024-04-03T01:23:24.033Z,20.14
2024-04-03T01:24:24.133Z,20.12
2024-04-03T01:25:29.640Z,20.11
2024-04-03T01:26:25.231Z,20.15
2024-04-03T01:27:24.195Z,20.12
2024-04-03T01:28:24.234Z,20.16
2024-04-03T01:29:24.212Z,20.14
2024-04-03T01:30:24.213Z,20.15
2024-04-03T01:31:24.205Z,20.14
2024-04-03T01:32:24.248Z,20.14
2024-04-03T01:33:24.277Z,20.15
2024-04-03T01:34:24.290Z,20.16
2024-04-03T01:35:24.272Z,20.17
2024-04-03T01:36:24.269Z,20.17
2024-04-03T01:37:24.275Z,20.17
2024-04-03T01:38:24.277Z,20.17
2024-04-03T01:39:24.349Z,20.17
2024-04-03T01:40:24.435Z,20.17
2024-04-03T01:41:24.498Z,20.18
2024-04-03T01:42:24.620Z,20.18
2024-04-03T01:43:24.687Z,20.18
2024-04-03T01:44:24.787Z,20.18
2024-04-03T01:45:24.858Z,20.19
2024-04-03T01:46:24.934Z,20.16
2024-04-03T01:47:25.027Z,20.18
2024-04-03T01:48:25.132Z,20.19
2024-04-03T01:49:25.232Z,20.18
2024-04-03T01:50:25.315Z,20.20
2024-04-03T01:51:25.376Z,20.18
2024-04-03T01:52:25.507Z,20.18
2024-04-03T01:53:25.610Z,20.19
2024-04-03T01:54:25.682Z,20.19
2024-04-03T01:55:25.788Z,20.18
2024-04-03T01:56:25.876Z,20.17
2024-04-03T01:57:25.960Z,20.17
2024-04-03T01:58:26.041Z,20.18
2024-04-03T01:59:26.159Z,20.18
2024-04-03T02:00:26.243Z,20.18
2024-04-03T02:01:26.305Z,20.17
2024-04-03T02:02:26.395Z,20.19
2024-04-03T02:03:26.487Z,20.19
2024-04-03T02:04:26.582Z,20.20
2024-04-03T02:05:26.675Z,20.20
2024-04-03T02:06:26.760Z,20.19
2024-04-03T02:07:26.901Z,20.18
2024-04-03T02:08:26.954Z,20.18
2024-04-03T02:09:27.039Z,20.18
2024-04-03T02:10:27.153Z,20.18
2024-04-03T02:11:27.231Z,20.17
2024-04-03T02:12:27.335Z,20.17
2024-04-03T02:13:27.435Z,20.16
2024-04-03T02:14:27.502Z,20.14
2024-04-03T02:15:27.640Z,20.16
2024-04-03T02:16:27.719Z,20.14
2024-04-03T02:17:27.855Z,20.13
2024-04-03T02:18:27.944Z,20.15
2024-04-03T02:19:27.990Z,20.14
2024-04-03T02:20:28.088Z,20.16
2024-04-03T02:21:28.192Z,20.13
2024-04-03T02:22:28.257Z,20.13
2024-04-03T02:23:36.129Z,20.14
2024-04-03T02:24:29.389Z,20.13
2024-04-03T02:25:28.428Z,20.12
2024-04-03T02:26:28.408Z,20.12
2024-04-03T02:27:28.400Z,20.12
2024-04-03T02:28:28.421Z,20.13
2024-04-03T02:29:28.382Z,20.11
2024-04-03T02:30:28.429Z,20.12
2024-04-03T02:31:28.392Z,20.10
2024-04-03T02:32:28.672Z,20.10
2024-04-03T02:33:28.379Z,20.13
2024-04-03T02:34:28.460Z,20.10
2024-04-03T02:35:28.382Z,20.11
2024-04-03T02:36:29.337Z,20.10
2024-04-03T02:37:28.415Z,20.11
2024-04-03T02:38:28.438Z,20.11
2024-04-03T02:39:28.458Z,20.12
2024-04-03T02:40:28.605Z,20.11
2024-04-03T02:41:28.698Z,20.12
2024-04-03T02:42:28.656Z,20.14
2024-04-03T02:43:28.658Z,20.13
2024-04-03T02:44:28.706Z,20.13
2024-04-03T02:45:28.861Z,20.12
2024-04-03T02:46:28.903Z,20.12
2024-04-03T02:47:29.024Z,20.12
2024-04-03T02:48:29.098Z,20.12
2024-04-03T02:49:29.192Z,20.12
2024-04-03T02:50:29.282Z,20.14
2024-04-03T02:51:29.455Z,20.12
2024-04-03T02:52:29.479Z,20.12
2024-04-03T02:53:29.588Z,20.14
2024-04-03T02:54:29.675Z,20.12
2024-04-03T02:55:29.751Z,20.14
2024-04-03T02:56:29.854Z,20.12
2024-04-03T02:57:29.938Z,20.13
2024-04-03T02:58:30.041Z,20.10
2024-04-03T02:59:30.157Z,20.12
2024-04-03T03:00:30.205Z,20.13
2024-04-03T03:01:30.342Z,20.12
2024-04-03T03:02:30.391Z,20.12
2024-04-03T03:03:30.479Z,20.14
2024-04-03T03:04:30.592Z,20.13
2024-04-03T03:05:30.684Z,20.14
2024-04-03T03:06:30.792Z,20.14
2024-04-03T03:07:30.899Z,20.13
2024-04-03T03:08:30.969Z,20.13
2024-04-03T03:09:34.129Z,20.11
2024-04-03T03:10:31.062Z,20.11
2024-04-03T03:11:31.059Z,20.09
2024-04-03T03:12:31.085Z,20.11
2024-04-03T03:13:31.381Z,20.10
2024-04-03T03:14:31.104Z,20.10
2024-04-03T03:15:31.133Z,20.11
2024-04-03T03:16:31.130Z,20.12
2024-04-03T03:17:31.128Z,20.12
2024-04-03T03:18:31.140Z,20.13
2024-04-03T03:19:31.105Z,20.14
2024-04-03T03:20:31.135Z,20.15
2024-04-03T03:21:31.133Z,20.16
2024-04-03T03:22:31.118Z,20.16
2024-04-03T03:23:31.129Z,20.15
2024-04-03T03:24:31.116Z,20.16
2024-04-03T03:25:31.125Z,20.15
2024-04-03T03:26:31.127Z,20.16
2024-04-03T03:27:31.136Z,20.14
2024-04-03T03:28:31.141Z,20.15
2024-04-03T03:29:31.151Z,20.14
2024-04-03T03:30:31.145Z,20.11
2024-04-03T03:31:31.136Z,20.13
2024-04-03T03:32:31.143Z,20.10
2024-04-03T03:33:31.199Z,20.11
2024-04-03T03:34:31.161Z,20.08
2024-04-03T03:35:31.153Z,20.07
2024-04-03T03:36:31.165Z,20.08
2024-04-03T03:37:31.170Z,20.07
2024-04-03T03:38:31.164Z,20.07
2024-04-03T03:39:31.163Z,20.06
2024-04-03T03:40:31.163Z,20.07
2024-04-03T03:41:31.140Z,20.07
2024-04-03T03:42:31.178Z,20.08
2024-04-03T03:43:31.163Z,20.07
2024-04-03T03:44:31.167Z,20.07
2024-04-03T03:45:31.187Z,20.08
2024-04-03T03:46:31.373Z,20.09
2024-04-03T03:47:31.538Z,20.07
2024-04-03T03:48:31.440Z,20.07
2024-04-03T03:49:31.207Z,20.07
2024-04-03T03:50:31.218Z,20.06
2024-04-03T03:51:31.178Z,20.08
2024-04-03T03:52:31.191Z,20.07
2024-04-03T03:53:31.194Z,20.08
2024-04-03T03:54:31.206Z,20.07
2024-04-03T03:55:31.218Z,20.08
2024-04-03T03:56:36.029Z,20.07
2024-04-03T03:57:32.188Z,20.09
2024-04-03T03:58:31.224Z,20.08
2024-04-03T03:59:31.197Z,20.08
2024-04-03T04:00:31.197Z,20.07
2024-04-03T04:01:31.198Z,20.07
2024-04-03T04:02:31.203Z,20.08
2024-04-03T04:03:31.214Z,20.08
2024-04-03T04:04:31.191Z,20.06
2024-04-03T04:05:31.225Z,20.08
2024-04-03T04:06:31.196Z,20.07
2024-04-03T04:07:31.222Z,20.06
2024-04-03T04:08:31.328Z,20.06
2024-04-03T04:09:31.421Z,20.06
2024-04-03T04:10:31.541Z,20.07
2024-04-03T04:11:31.610Z,20.07
2024-04-03T04:12:31.712Z,20.06
2024-04-03T04:13:31.803Z,20.07
2024-04-03T04:14:31.897Z,20.06
2024-04-03T04:15:31.991Z,20.05
2024-04-03T04:16:32.084Z,20.07
2024-04-03T04:17:39.259Z,20.11
2024-04-03T04:18:39.244Z,20.08
2024-04-03T04:19:39.258Z,20.08
2024-04-03T04:20:39.273Z,20.08
2024-04-03T04:21:39.230Z,20.07
2024-04-03T04:22:39.258Z,20.07
2024-04-03T04:23:39.269Z,20.08
2024-04-03T04:24:39.245Z,20.08
2024-04-03T04:25:39.253Z,20.10
2024-04-03T04:26:39.258Z,20.08
2024-04-03T04:27:39.258Z,20.08
2024-04-03T04:28:39.283Z,20.09
2024-04-03T04:29:39.278Z,20.09
2024-04-03T04:30:39.270Z,20.06
2024-04-03T04:31:46.450Z,20.12
2024-04-03T04:32:46.413Z,20.12
2024-04-03T04:33:46.422Z,20.10
2024-04-03T04:34:46.428Z,20.09
2024-04-03T04:35:46.433Z,20.07
2024-04-03T04:37:20.355Z,20.09
2024-04-03T04:38:20.353Z,20.07
2024-04-03T04:39:20.346Z,20.07
2024-04-03T04:40:22.142Z,20.07
2024-04-03T04:41:20.342Z,20.07
2024-04-03T04:42:20.354Z,20.05
2024-04-03T04:43:20.359Z,20.06
2024-04-03T04:44:20.367Z,20.07
2024-04-03T04:45:20.360Z,20.04
2024-04-03T04:46:20.352Z,20.04
2024-04-03T04:47:20.390Z,20.05
2024-04-03T04:48:20.379Z,20.04
2024-04-03T04:49:20.358Z,20.04
2024-04-03T04:50:20.369Z,20.01
2024-04-03T04:51:20.425Z,20.03
2024-04-03T04:52:20.450Z,20.02
2024-04-03T04:53:20.496Z,20.04
2024-04-03T04:54:20.533Z,20.02
2024-04-03T04:55:20.541Z,20.01
2024-04-03T04:56:20.592Z,20.02
2024-04-03T04:57:20.615Z,19.98
2024-04-03T04:58:20.676Z,19.99
2024-04-03T04:59:20.759Z,20.02
2024-04-03T05:00:20.861Z,19.99
2024-04-03T05:01:43.411Z,20.00
2024-04-03T05:02:20.965Z,20.05
2024-04-03T05:03:20.919Z,19.98
2024-04-03T05:04:20.921Z,19.98
2024-04-03T05:05:20.937Z,20.01
2024-04-03T05:06:20.934Z,19.97
2024-04-03T05:07:20.931Z,19.99
2024-04-03T05:08:20.926Z,20.00
2024-04-03T05:09:20.915Z,20.03
2024-04-03T05:10:20.920Z,20.06
2024-04-03T05:11:20.926Z,20.00
2024-04-03T05:12:20.927Z,20.06
2024-04-03T05:13:20.934Z,20.01
2024-04-03T05:14:20.938Z,20.01
2024-04-03T05:15:20.947Z,19.99
2024-04-03T05:16:20.961Z,20.01
2024-04-03T05:17:20.950Z,20.02
2024-04-03T05:18:20.946Z,20.05
2024-04-03T05:19:20.981Z,20.05
2024-04-03T05:20:20.950Z,20.04
2024-04-03T05:21:20.961Z,20.05
2024-04-03T05:22:20.977Z,20.05
2024-04-03T05:23:20.952Z,20.06
2024-04-03T05:24:20.991Z,20.05
2024-04-03T05:25:20.952Z,20.10
2024-04-03T05:26:20.994Z,20.10
2024-04-03T05:27:20.975Z,20.29
2024-04-03T05:28:21.010Z,20.52
2024-04-03T05:29:21.016Z,20.69
2024-04-03T05:30:21.067Z,20.90
2024-04-03T05:31:21.110Z,20.66
2024-04-03T05:32:21.136Z,20.89
2024-04-03T05:33:21.181Z,21.03
2024-04-03T05:34:21.258Z,21.23
2024-04-03T05:35:21.466Z,21.54
2024-04-03T05:36:21.411Z,21.72
2024-04-03T05:37:21.529Z,21.77
2024-04-03T05:38:21.622Z,22.54
2024-04-03T05:39:21.724Z,22.66
2024-04-03T05:40:21.816Z,23.02
2024-04-03T05:41:21.949Z,23.24
2024-04-03T05:42:21.957Z,23.39
2024-04-03T05:43:22.047Z,23.59
2024-04-03T05:44:22.110Z,23.78
2024-04-03T05:45:22.186Z,24.03
2024-04-03T05:46:44.771Z,24.10
2024-04-03T05:47:22.290Z,24.50
2024-04-03T05:48:22.315Z,24.53
2024-04-03T05:49:22.400Z,24.56
2024-04-03T05:50:22.533Z,25.02
2024-04-03T05:51:22.305Z,25.15
2024-04-03T05:52:22.345Z,25.11
2024-04-03T05:53:22.279Z,25.14
2024-04-03T05:54:22.983Z,24.92
2024-04-03T05:55:22.299Z,24.68
2024-04-03T05:56:22.294Z,24.45
2024-04-03T05:57:22.325Z,24.31
2024-04-03T05:58:22.308Z,24.22
2024-04-03T05:59:22.321Z,24.23
2024-04-03T06:00:22.540Z,24.18
2024-04-03T06:01:22.300Z,24.03
2024-04-03T06:02:22.303Z,23.96
2024-04-03T06:03:22.275Z,23.84
2024-04-03T06:04:22.302Z,23.88
2024-04-03T06:05:22.347Z,23.88
2024-04-03T06:06:22.363Z,23.68
2024-04-03T06:07:22.304Z,23.72
2024-04-03T06:08:22.311Z,23.97
2024-04-03T06:09:22.320Z,23.95
2024-04-03T06:10:22.571Z,23.90
2024-04-03T06:11:22.366Z,24.01
2024-04-03T06:12:23.026Z,24.04
2024-04-03T06:13:22.557Z,24.06
2024-04-03T06:14:22.655Z,24.14
2024-04-03T06:15:22.737Z,24.22
2024-04-03T06:16:22.802Z,24.27
2024-04-03T06:17:22.918Z,24.35
2024-04-03T06:18:22.999Z,24.30
2024-04-03T06:19:23.093Z,24.39
2024-04-03T06:20:23.179Z,24.35
2024-04-03T06:21:23.258Z,24.44
2024-04-03T06:22:23.306Z,24.54
2024-04-03T06:23:23.843Z,24.46
2024-04-03T06:24:23.502Z,24.46
2024-04-03T06:25:23.586Z,24.56
2024-04-03T06:26:23.648Z,24.32
2024-04-03T06:27:24.646Z,24.42
2024-04-03T06:28:23.638Z,25.15
2024-04-03T06:29:24.556Z,25.51
2024-04-03T06:30:26.365Z,25.15
2024-04-03T06:31:23.685Z,25.11
2024-04-03T06:32:23.662Z,24.97
2024-04-03T06:33:23.682Z,25.01
2024-04-03T06:34:23.679Z,24.96
2024-04-03T06:35:24.092Z,24.85
2024-04-03T06:36:23.682Z,24.75
2024-04-03T06:37:23.691Z,24.54
2024-04-03T06:38:23.688Z,24.23
2024-04-03T06:39:23.706Z,24.34
2024-04-03T06:40:24.055Z,24.57
2024-04-03T06:41:23.669Z,23.92
2024-04-03T06:42:23.656Z,24.44
2024-04-03T06:43:23.698Z,24.71
2024-04-03T06:44:23.688Z,24.81
2024-04-03T06:45:24.057Z,24.99
2024-04-03T06:46:23.670Z,24.85
2024-04-03T06:47:23.708Z,24.79
2024-04-03T06:48:23.723Z,24.80
2024-04-03T06:49:24.495Z,24.84
2024-04-03T06:50:24.100Z,24.78
2024-04-03T06:51:23.703Z,24.56
2024-04-03T06:52:25.684Z,24.61
2024-04-03T06:53:23.742Z,24.64
2024-04-03T06:54:23.706Z,24.60
2024-04-03T06:55:24.068Z,24.69
2024-04-03T06:56:23.719Z,24.70
2024-04-03T06:57:23.725Z,24.67
2024-04-03T06:58:24.712Z,24.74
2024-04-03T06:59:25.514Z,24.68
2024-04-03T07:00:24.584Z,24.72
2024-04-03T07:01:23.752Z,24.71
2024-04-03T07:02:23.755Z,24.74
2024-04-03T07:03:23.713Z,24.73
2024-04-03T07:04:23.739Z,24.87
2024-04-03T07:05:24.089Z,24.80
2024-04-03T07:06:23.718Z,24.78
2024-04-03T07:07:23.776Z,24.82
2024-04-03T07:08:24.721Z,24.83
2024-04-03T07:09:23.715Z,24.85
2024-04-03T07:10:24.106Z,24.95
2024-04-03T07:11:23.759Z,25.19
2024-04-03T07:12:23.782Z,24.39
2024-04-03T07:13:23.748Z,24.84
2024-04-03T07:14:23.757Z,25.24
2024-04-03T07:15:25.980Z,24.94
2024-04-03T07:16:23.734Z,24.96
2024-04-03T07:17:23.752Z,25.01
2024-04-03T07:18:23.784Z,25.22
2024-04-03T07:19:23.879Z,25.19
2024-04-03T07:20:23.986Z,25.16
2024-04-03T07:21:26.846Z,25.19
2024-04-03T07:22:24.577Z,25.15
2024-04-03T07:23:24.022Z,25.20
2024-04-03T07:24:24.487Z,25.24
2024-04-03T07:25:24.002Z,25.28
2024-04-03T07:26:24.017Z,25.22
2024-04-03T07:27:24.032Z,25.35
2024-04-03T07:28:24.047Z,25.37
2024-04-03T07:29:24.026Z,25.35
2024-04-03T07:30:24.046Z,25.47
2024-04-03T07:31:24.059Z,24.89
2024-04-03T07:32:24.077Z,24.59
2024-04-03T07:33:24.068Z,24.02
2024-04-03T07:34:24.065Z,24.07
2024-04-03T07:35:24.053Z,24.38
2024-04-03T07:36:24.043Z,24.88
2024-04-03T07:37:25.046Z,25.07
2024-04-03T07:38:24.037Z,25.14
2024-04-03T07:39:24.066Z,24.61
2024-04-03T07:40:24.117Z,24.57
2024-04-03T07:41:24.132Z,24.48
2024-04-03T07:42:24.051Z,25.05
2024-04-03T07:43:24.060Z,25.23
2024-04-03T07:44:25.581Z,24.89
2024-04-03T07:45:24.092Z,24.99
2024-04-03T07:46:24.043Z,25.07
2024-04-03T07:47:24.098Z,25.21
2024-04-03T07:48:24.072Z,24.74
2024-04-03T07:49:24.060Z,24.88
2024-04-03T07:50:24.104Z,24.86
2024-04-03T07:51:24.050Z,24.72
2024-04-03T07:52:24.078Z,24.60
2024-04-03T07:53:24.099Z,24.28
2024-04-03T07:54:24.060Z,24.18
2024-04-03T07:55:24.082Z,24.13
2024-04-03T07:56:24.584Z,23.91
2024-04-03T07:57:24.095Z,23.76
2024-04-03T07:58:24.080Z,23.75
2024-04-03T07:59:24.084Z,23.71
2024-04-03T08:00:24.127Z,23.88
2024-04-03T08:01:24.090Z,23.71
2024-04-03T08:02:24.087Z,23.37
2024-04-03T08:03:32.672Z,23.10
2024-04-03T08:04:25.092Z,23.20
2024-04-03T08:05:24.084Z,23.14
2024-04-03T08:06:24.612Z,23.05
2024-04-03T08:07:24.090Z,23.24
2024-04-03T08:08:24.108Z,23.01
2024-04-03T08:09:24.097Z,22.98
2024-04-03T08:10:24.075Z,22.97
2024-04-03T08:11:24.121Z,23.06
2024-04-03T08:12:24.103Z,23.20
2024-04-03T08:13:24.104Z,22.95
2024-04-03T08:14:24.149Z,22.82
2024-04-03T08:15:24.358Z,23.09
2024-04-03T08:16:24.399Z,23.42
2024-04-03T08:17:24.501Z,23.16
2024-04-03T08:18:24.543Z,23.04
2024-04-03T08:19:24.646Z,22.90
2024-04-03T08:20:24.734Z,22.69
2024-04-03T08:21:25.198Z,22.60
2024-04-03T08:22:24.943Z,22.77
2024-04-03T08:23:25.087Z,22.81
2024-04-03T08:24:25.184Z,22.63
2024-04-03T08:25:25.243Z,22.40
2024-04-03T08:26:25.591Z,22.24
2024-04-03T08:27:25.425Z,22.31
2024-04-03T08:28:25.525Z,22.32
2024-04-03T08:29:25.591Z,22.71
2024-04-03T08:30:25.726Z,22.39
2024-04-03T08:31:26.095Z,23.02
2024-04-03T08:32:25.971Z,23.39
2024-04-03T08:33:29.750Z,24.02
2024-04-03T08:34:25.960Z,24.03
2024-04-03T08:35:25.951Z,24.45
2024-04-03T08:36:26.109Z,24.28
2024-04-03T08:37:25.955Z,24.24
2024-04-03T08:38:25.993Z,24.14
2024-04-03T08:39:26.040Z,24.03
2024-04-03T08:40:25.960Z,23.94
2024-04-03T08:41:26.138Z,23.92
2024-04-03T08:42:26.044Z,23.89
2024-04-03T08:43:25.975Z,23.83
2024-04-03T08:44:25.986Z,23.77
2024-04-03T08:45:26.044Z,23.68
2024-04-03T08:46:25.959Z,23.61
2024-04-03T08:47:26.210Z,23.55
2024-04-03T08:48:25.997Z,23.50
2024-04-03T08:49:25.963Z,23.40
2024-04-03T08:50:25.976Z,23.34
2024-04-03T08:51:26.004Z,23.24
2024-04-03T08:52:26.159Z,23.10
2024-04-03T08:53:25.984Z,23.26
2024-04-03T08:54:26.040Z,23.29
2024-04-03T08:55:26.019Z,22.91
2024-04-03T08:56:25.967Z,23.17
2024-04-03T08:57:26.182Z,23.30
2024-04-03T08:58:26.003Z,23.76
2024-04-03T08:59:25.993Z,23.93
2024-04-03T09:00:29.221Z,24.07
2024-04-03T09:01:27.022Z,23.81
2024-04-03T09:02:26.004Z,23.82
2024-04-03T09:03:26.068Z,23.87
2024-04-03T09:04:26.017Z,23.94
2024-04-03T09:05:26.021Z,23.73
2024-04-03T09:06:26.019Z,23.97
2024-04-03T09:07:26.027Z,23.96
2024-04-03T09:09:13.347Z,24.04
2024-04-03T09:10:13.290Z,23.94
2024-04-03T09:11:13.296Z,23.95
2024-04-03T09:12:13.311Z,23.86
2024-04-03T09:13:13.341Z,23.99
2024-04-03T09:14:13.310Z,23.80
2024-04-03T09:15:13.345Z,23.60
2024-04-03T09:16:13.303Z,23.68
2024-04-03T09:17:13.296Z,23.59
2024-04-03T09:18:13.345Z,23.51
2024-04-03T09:19:13.309Z,23.28
2024-04-03T09:20:13.302Z,23.09
2024-04-03T09:21:13.294Z,22.96
2024-04-03T09:22:13.346Z,22.77
2024-04-03T09:23:13.300Z,22.66
2024-04-03T09:24:13.377Z,22.78
2024-04-03T09:25:13.321Z,22.70
2024-04-03T09:26:13.340Z,22.66
2024-04-03T09:27:13.406Z,22.53
2024-04-03T09:28:13.359Z,22.53
2024-04-03T09:29:13.827Z,22.50
2024-04-03T09:30:13.788Z,22.58
2024-04-03T09:31:13.332Z,22.75
2024-04-03T09:32:13.917Z,22.62
2024-04-03T09:33:13.434Z,22.34
2024-04-03T09:34:13.352Z,22.48
2024-04-03T09:35:13.328Z,22.58
2024-04-03T09:36:13.327Z,22.28
2024-04-03T09:37:13.359Z,22.19
2024-04-03T09:38:13.347Z,22.16
2024-04-03T09:39:13.365Z,22.44
2024-04-03T09:40:13.332Z,22.49
2024-04-03T09:41:13.424Z,22.37
2024-04-03T09:42:13.925Z,22.16
2024-04-03T09:43:13.586Z,22.64
2024-04-03T09:44:15.024Z,22.93
2024-04-03T09:45:13.856Z,23.28
2024-04-03T09:46:13.874Z,23.21
2024-04-03T09:47:14.612Z,23.16
2024-04-03T09:48:14.042Z,22.68
2024-04-03T09:49:14.115Z,22.80
2024-04-03T09:50:14.206Z,22.77
2024-04-03T09:51:14.314Z,22.71
2024-04-03T09:52:14.360Z,22.77
2024-04-03T09:53:14.443Z,22.79
2024-04-03T09:54:14.516Z,22.75
2024-04-03T09:55:14.598Z,22.64
2024-04-03T09:56:14.660Z,22.63
2024-04-03T09:57:14.743Z,22.37
2024-04-03T09:58:14.806Z,22.11
2024-04-03T09:59:14.860Z,22.06
2024-04-03T10:00:14.942Z,22.22
2024-04-03T10:01:15.027Z,22.22
2024-04-03T10:02:15.122Z,22.46
2024-04-03T10:03:15.432Z,22.40
2024-04-03T10:04:15.271Z,22.36
2024-04-03T10:05:15.330Z,22.49
2024-04-03T10:06:15.426Z,22.53
2024-04-03T10:07:16.347Z,22.65
2024-04-03T10:08:15.945Z,22.75
2024-04-03T10:09:15.627Z,22.73
2024-04-03T10:10:15.677Z,22.80
2024-04-03T10:11:15.785Z,22.79
2024-04-03T10:12:15.798Z,22.89
2024-04-03T10:13:15.881Z,22.89
2024-04-03T10:14:15.992Z,22.90
2024-04-03T10:15:16.070Z,22.96
2024-04-03T10:16:16.113Z,22.89
2024-04-03T10:17:16.180Z,22.94
2024-04-03T10:18:16.285Z,22.92
2024-04-03T10:19:16.363Z,22.91
2024-04-03T10:20:16.454Z,22.96
2024-04-03T10:21:16.556Z,22.96
2024-04-03T10:22:16.638Z,23.06
2024-04-03T10:23:16.927Z,23.04
2024-04-03T10:24:16.774Z,23.14
2024-04-03T10:25:16.885Z,23.17
2024-04-03T10:26:17.005Z,23.22
2024-04-03T10:27:17.097Z,23.25
2024-04-03T10:28:17.471Z,23.19
2024-04-03T10:29:17.290Z,23.22
2024-04-03T10:30:17.346Z,23.47
2024-04-03T10:31:17.444Z,23.48
2024-04-03T10:32:17.530Z,23.47
2024-04-03T10:33:17.999Z,23.54
2024-04-03T10:34:17.698Z,23.49
2024-04-03T10:35:17.772Z,23.48
2024-04-03T10:36:17.861Z,23.45
2024-04-03T10:37:17.952Z,23.19
2024-04-03T10:38:18.435Z,23.51
2024-04-03T10:39:18.095Z,23.58
2024-04-03T10:40:18.222Z,24.36
2024-04-03T10:41:18.297Z,24.07
2024-04-03T10:42:18.362Z,24.03
2024-04-03T10:43:18.454Z,23.93
2024-04-03T10:44:18.524Z,23.42
2024-04-03T10:45:18.617Z,23.80
2024-04-03T10:46:18.741Z,23.67
2024-04-03T10:47:18.783Z,23.90
2024-04-03T10:48:18.947Z,23.44
2024-04-03T10:49:18.990Z,23.44
2024-04-03T10:50:19.037Z,23.47
2024-04-03T10:51:19.108Z,23.34
2024-04-03T10:52:19.234Z,23.35
2024-04-03T10:53:19.287Z,23.34
2024-04-03T10:54:19.364Z,23.28
2024-04-03T10:55:19.471Z,23.19
2024-04-03T10:56:19.527Z,23.07
2024-04-03T10:57:19.635Z,23.02
2024-04-03T10:58:19.984Z,22.98
2024-04-03T10:59:19.746Z,23.03
2024-04-03T11:00:19.868Z,22.80
2024-04-03T11:01:19.917Z,22.79
2024-04-03T11:02:20.032Z,22.73
2024-04-03T11:03:20.048Z,22.63
2024-04-03T11:04:20.194Z,22.58
2024-04-03T11:05:20.241Z,22.57
2024-04-03T11:06:20.351Z,22.54
2024-04-03T11:07:20.385Z,22.49
2024-04-03T11:08:20.414Z,22.43
2024-04-03T11:09:20.553Z,22.31
2024-04-03T11:10:20.590Z,22.24
2024-04-03T11:11:20.689Z,22.19
2024-04-03T11:12:20.737Z,22.17
2024-04-03T11:13:20.794Z,22.11
2024-04-03T11:14:20.868Z,22.07
2024-04-03T11:15:21.007Z,22.03
2024-04-03T11:16:21.039Z,22.02
2024-04-03T11:17:21.096Z,22.00
2024-04-03T11:18:21.184Z,21.98
2024-04-03T11:19:21.224Z,21.98
2024-04-03T11:20:21.284Z,21.87
2024-04-03T11:21:21.385Z,21.82
2024-04-03T11:22:21.449Z,21.82
2024-04-03T11:23:21.675Z,21.83
2024-04-03T11:24:21.607Z,21.80
2024-04-03T11:25:21.703Z,21.93
2024-04-03T11:26:21.758Z,22.05
2024-04-03T11:27:21.885Z,22.13
2024-04-03T11:28:21.986Z,22.10
2024-04-03T11:29:22.051Z,22.48
2024-04-03T11:30:22.253Z,22.51
2024-04-03T11:31:22.226Z,22.52
2024-04-03T11:32:22.278Z,22.52
2024-04-03T11:33:22.566Z,22.48
2024-04-03T11:34:22.471Z,22.47
2024-04-03T11:35:22.547Z,22.42
2024-04-03T11:36:22.653Z,22.39
2024-04-03T11:37:22.712Z,22.33
2024-04-03T11:38:22.979Z,22.29
2024-04-03T11:39:22.947Z,22.27
2024-04-03T11:40:22.956Z,22.30
2024-04-03T11:41:23.047Z,22.30
2024-04-03T11:42:23.103Z,22.30
2024-04-03T11:43:23.182Z,22.27
2024-04-03T11:44:23.257Z,22.24
2024-04-03T11:45:23.315Z,22.28
2024-04-03T11:46:23.384Z,22.28
2024-04-03T11:47:23.494Z,22.28
2024-04-03T11:48:23.575Z,22.26
2024-04-03T11:49:23.604Z,22.24
2024-04-03T11:50:23.733Z,22.20
2024-04-03T11:51:23.808Z,22.20
2024-04-03T11:52:23.837Z,22.20
2024-04-03T11:53:23.936Z,22.23
2024-04-03T11:54:24.065Z,22.22
2024-04-03T11:55:24.084Z,22.20
2024-04-03T11:56:24.166Z,22.22
2024-04-03T11:57:24.241Z,22.21
2024-04-03T11:58:24.308Z,22.21
2024-04-03T11:59:24.446Z,22.21
2024-04-03T12:00:24.502Z,22.20
2024-04-03T12:01:24.573Z,22.16
2024-04-03T12:02:24.634Z,22.17
2024-04-03T12:03:24.701Z,22.20
2024-04-03T12:04:24.800Z,22.17
2024-04-03T12:05:24.950Z,22.16
2024-04-03T12:06:24.973Z,22.15
2024-04-03T12:07:25.017Z,22.10
2024-04-03T12:08:25.097Z,22.10
2024-04-03T12:09:25.198Z,22.13
2024-04-03T12:10:25.271Z,22.09
2024-04-03T12:11:25.330Z,22.08
2024-04-03T12:12:25.428Z,22.05
2024-04-03T12:13:25.503Z,22.06
2024-04-03T12:14:25.581Z,22.05
2024-04-03T12:15:25.711Z,22.05
2024-04-03T12:16:25.762Z,22.05
2024-04-03T12:17:25.912Z,22.03
2024-04-03T12:18:26.043Z,22.03
2024-04-03T12:19:26.044Z,22.00
2024-04-03T12:20:26.142Z,22.03
2024-04-03T12:21:26.261Z,22.01
2024-04-03T12:22:26.305Z,21.97
2024-04-03T12:23:26.462Z,21.97
2024-04-03T12:24:26.545Z,21.97
2024-04-03T12:25:26.697Z,21.95
2024-04-03T12:26:26.664Z,21.95
2024-04-03T12:27:26.766Z,21.92
2024-04-03T12:28:26.843Z,21.89
2024-04-03T12:29:26.911Z,21.96
2024-04-03T12:30:26.997Z,21.92
2024-04-03T12:31:27.071Z,21.94
2024-04-03T12:32:27.217Z,21.94
2024-04-03T12:33:27.321Z,21.93
2024-04-03T12:34:27.361Z,21.73
2024-04-03T12:35:27.404Z,20.83
2024-04-03T12:36:48.865Z,21.03
2024-04-03T12:37:46.902Z,21.33
2024-04-03T12:38:31.031Z,21.35
2024-04-03T12:39:27.554Z,21.38
2024-04-03T12:40:27.544Z,21.32
2024-04-03T12:41:27.628Z,21.22
2024-04-03T12:42:27.693Z,21.28
2024-04-03T12:43:27.680Z,21.30
2024-04-03T12:44:27.710Z,21.33
2024-04-03T12:45:27.741Z,21.35
2024-04-03T12:46:27.908Z,21.38
2024-04-03T12:47:27.885Z,21.33
2024-04-03T12:48:27.905Z,21.32
2024-04-03T12:49:27.939Z,21.30
2024-04-03T12:50:28.020Z,21.29
2024-04-03T12:51:28.121Z,21.34
2024-04-03T12:52:28.166Z,21.35
2024-04-03T12:53:28.230Z,21.36
2024-04-03T12:54:28.307Z,21.43